TimePDT,TemperatureF,Dew PointF,Humidity,Sea Level PressureIn,VisibilityMPH,Wind Direction,Wind SpeedMPH,Gust SpeedMPH,PrecipitationIn,Events,Conditions,WindDirDegrees,DateUTC
12:53 AM,52.0,51.1,97,30.10,10.0,WSW,13.8,-,N/A,,Overcast,240,2013-06-21 07:53:00
1:44 AM,51.8,51.8,100,30.09,10.0,WSW,9.2,-,N/A,,Overcast,250,2013-06-21 08:44:00
1:53 AM,52.0,51.1,97,30.10,10.0,WSW,6.9,-,N/A,,Overcast,240,2013-06-21 08:53:00
2:53 AM,53.1,51.1,93,30.11,10.0,West,3.5,-,N/A,,Overcast,270,2013-06-21 09:53:00
3:53 AM,52.0,51.1,97,30.10,10.0,SW,6.9,-,N/A,,Overcast,230,2013-06-21 10:53:00
4:11 AM,51.8,51.8,100,30.10,10.0,SW,5.8,-,N/A,,Overcast,230,2013-06-21 11:11:00
4:35 AM,51.8,51.8,100,30.11,10.0,WSW,5.8,-,N/A,,Overcast,240,2013-06-21 11:35:00
4:53 AM,52.0,51.1,97,30.12,10.0,WSW,6.9,-,N/A,,Overcast,240,2013-06-21 11:53:00
5:53 AM,52.0,51.1,97,30.12,10.0,West,3.5,-,N/A,,Overcast,260,2013-06-21 12:53:00
6:53 AM,53.1,51.1,93,30.13,10.0,WSW,3.5,-,N/A,,Overcast,240,2013-06-21 13:53:00
7:36 AM,53.6,51.8,94,30.14,10.0,West,3.5,-,N/A,,Overcast,260,2013-06-21 14:36:00
7:53 AM,54.0,52.0,93,30.14,10.0,Calm,Calm,-,N/A,,Overcast,0,2013-06-21 14:53:00
8:53 AM,55.9,51.1,84,30.15,10.0,Calm,Calm,-,N/A,,Mostly Cloudy,0,2013-06-21 15:53:00
9:01 AM,57.2,51.8,82,30.15,10.0,Calm,Calm,-,N/A,,Scattered Clouds,0,2013-06-21 16:01:00
9:11 AM,60.8,51.8,72,30.15,10.0,Calm,Calm,-,N/A,,Mostly Cloudy,0,2013-06-21 16:11:00
9:53 AM,57.9,51.1,78,30.15,10.0,Calm,Calm,-,N/A,,Overcast,0,2013-06-21 16:53:00
10:13 AM,60.8,51.8,72,30.14,10.0,Calm,Calm,-,N/A,,Overcast,0,2013-06-21 17:13:00
10:26 AM,60.8,51.8,72,30.14,10.0,Variable,3.5,-,N/A,,Overcast,0,2013-06-21 17:26:00
10:53 AM,59.0,50.0,72,30.15,10.0,Calm,Calm,-,N/A,,Overcast,0,2013-06-21 17:53:00
11:53 AM,61.0,51.1,70,30.15,10.0,SSE,4.6,-,N/A,,Overcast,150,2013-06-21 18:53:00
12:44 PM,62.6,50.0,63,30.14,10.0,Calm,Calm,-,N/A,,Overcast,0,2013-06-21 19:44:00
12:53 PM,63.0,50.0,63,30.14,10.0,Variable,3.5,-,N/A,,Overcast,0,2013-06-21 19:53:00
1:53 PM,64.9,52.0,63,30.14,10.0,SE,5.8,-,N/A,,Overcast,130,2013-06-21 20:53:00
2:53 PM,64.9,52.0,63,30.14,10.0,SE,4.6,-,N/A,,Overcast,140,2013-06-21 21:53:00
3:53 PM,64.0,52.0,65,30.14,10.0,WSW,9.2,-,N/A,,Overcast,240,2013-06-21 22:53:00
4:53 PM,66.9,52.0,59,30.13,10.0,West,4.6,-,N/A,,Scattered Clouds,260,2013-06-21 23:53:00
5:53 PM,64.0,51.1,63,30.13,10.0,WSW,4.6,-,N/A,,Overcast,250,2013-06-22 00:53:00
6:53 PM,63.0,53.1,70,30.13,10.0,West,8.1,-,N/A,,Overcast,260,2013-06-22 01:53:00
7:53 PM,61.0,53.1,75,30.13,10.0,WSW,6.9,-,N/A,,Overcast,250,2013-06-22 02:53:00
8:53 PM,60.1,51.1,72,30.13,10.0,WSW,9.2,-,N/A,,Overcast,240,2013-06-22 03:53:00
9:53 PM,57.0,51.1,81,30.13,10.0,SW,8.1,-,N/A,,Overcast,230,2013-06-22 04:53:00
10:53 PM,54.0,50.0,86,30.13,10.0,West,4.6,-,N/A,,Clear,260,2013-06-22 05:53:00
11:53 PM,53.1,50.0,89,30.12,10.0,WSW,5.8,-,N/A,,Clear,240,2013-06-22 06:53:00